createdAt,value
2022-09-25T00:00:44.966Z,93.50
2022-09-25T00:03:17.516Z,93.40
2022-09-25T00:06:20.412Z,93.80
2022-09-25T00:09:12.368Z,93.40
2022-09-25T00:12:07.566Z,93.40
2022-09-25T00:32:10.380Z,92.70
2022-09-25T00:35:01.727Z,92.80
2022-09-25T00:37:35.222Z,92.70
2022-09-25T00:40:08.098Z,92.90
2022-09-25T00:42:39.237Z,92.60
2022-09-25T00:45:30.404Z,92.60
2022-09-25T00:48:07.840Z,92.50
2022-09-25T00:50:44.708Z,92.60
2022-09-25T00:53:44.846Z,92.80
2022-09-25T00:56:44.470Z,92.50
2022-09-25T00:59:18.486Z,92.50
2022-09-25T01:01:57.904Z,92.40
2022-09-25T01:04:34.650Z,92.40
2022-09-25T01:07:05.989Z,92.50
2022-09-25T01:10:00.843Z,92.30
2022-09-25T01:13:05.030Z,92.10
2022-09-25T01:25:41.515Z,92.10
2022-09-25T01:29:03.228Z,92.00
2022-09-25T01:32:11.962Z,92.10
2022-09-25T01:35:01.001Z,92.20
2022-09-25T01:37:58.399Z,92.50
2022-09-25T01:40:40.561Z,91.80
2022-09-25T01:43:22.366Z,92.20
2022-09-25T01:45:58.934Z,91.90
2022-09-25T01:49:09.315Z,92.20
2022-09-25T01:51:52.065Z,92.40
2022-09-25T01:54:47.810Z,92.40
2022-09-25T01:58:09.817Z,92.10
2022-09-25T02:00:53.866Z,92.70
2022-09-25T02:03:36.176Z,92.70
2022-09-25T02:06:32.565Z,92.80
2022-09-25T03:01:50.179Z,93.10
2022-09-25T03:04:42.427Z,93.10
2022-09-25T03:07:15.383Z,93.10
2022-09-25T03:09:50.621Z,93.00
2022-09-25T03:12:43.223Z,93.10
2022-09-25T03:15:41.086Z,93.00
2022-09-25T03:18:33.473Z,93.10
2022-09-25T03:21:05.834Z,93.00
2022-09-25T03:23:37.056Z,93.10
2022-09-25T03:26:31.828Z,93.00
2022-09-25T04:36:28.429Z,93.10
2022-09-25T04:38:59.586Z,93.00
2022-09-25T04:41:53.523Z,93.10
2022-09-25T04:44:25.865Z,93.00
2022-09-25T04:47:19.543Z,93.00
2022-09-25T04:50:35.916Z,93.10
2022-09-25T04:53:07.390Z,93.10
2022-09-25T04:55:40.899Z,93.10
2022-09-25T04:59:01.001Z,93.20
2022-09-25T05:01:59.173Z,93.20
2022-09-25T05:04:32.242Z,93.30
2022-09-25T05:07:04.458Z,93.20
2022-09-25T05:12:48.858Z,93.20
2022-09-25T05:15:21.230Z,93.10
2022-09-25T05:18:25.749Z,93.10
2022-09-25T05:21:23.047Z,93.30
2022-09-25T05:24:20.200Z,93.10
2022-09-25T05:27:12.357Z,93.10
2022-09-25T05:29:44.373Z,93.20
2022-09-25T05:32:16.665Z,93.10
2022-09-25T05:54:43.590Z,93.30
2022-09-25T05:57:14.809Z,93.30
2022-09-25T06:00:14.074Z,93.30
2022-09-25T06:03:24.775Z,93.30
2022-09-25T06:06:16.351Z,93.20
2022-09-25T06:08:47.639Z,93.20
2022-09-25T06:11:18.845Z,93.30
2022-09-25T06:14:11.796Z,93.30
2022-09-25T06:17:07.364Z,93.30
2022-09-25T06:19:39.672Z,93.40
2022-09-25T06:22:12.354Z,93.50
2022-09-25T06:30:37.100Z,93.50
2022-09-25T06:33:14.012Z,93.50
2022-09-25T06:36:08.203Z,93.40
2022-09-25T06:38:59.152Z,93.50
2022-09-25T06:41:30.919Z,93.50
2022-09-25T06:44:24.530Z,93.60
2022-09-25T06:47:35.418Z,93.60
2022-09-25T06:50:08.740Z,93.60
2022-09-25T06:53:10.182Z,93.60
2022-09-25T08:08:54.177Z,93.80
2022-09-25T08:11:25.449Z,93.80
2022-09-25T08:13:56.907Z,93.70
2022-09-25T08:16:49.049Z,93.70
2022-09-25T08:19:20.286Z,93.80
2022-09-25T08:21:52.094Z,93.80
2022-09-25T08:24:44.382Z,93.70
2022-09-25T08:27:41.168Z,93.70
2022-09-25T08:30:32.752Z,93.80
2022-09-25T08:33:04.030Z,93.80
2022-09-25T08:35:35.143Z,93.70
2022-09-25T08:38:06.674Z,93.70
2022-09-25T08:40:48.002Z,93.70
2022-09-25T09:45:31.048Z,93.80
2022-09-25T10:15:56.947Z,93.80
2022-09-25T10:18:54.845Z,93.90
2022-09-25T10:22:03.798Z,93.90
2022-09-25T10:24:55.035Z,93.90
2022-09-25T10:27:50.852Z,94.00
2022-09-25T10:30:54.277Z,94.00
2022-09-25T10:33:28.835Z,94.00
2022-09-25T10:51:39.998Z,94.20
2022-09-25T10:54:18.148Z,94.20
2022-09-25T10:57:38.274Z,94.20
2022-09-25T11:00:29.785Z,94.20
2022-09-25T11:03:03.842Z,94.20
2022-09-25T11:05:38.213Z,94.30
2022-09-25T11:08:10.873Z,94.30
2022-09-25T11:11:04.285Z,94.30
2022-09-25T11:14:00.382Z,94.30
2022-09-25T11:29:06.566Z,94.40
2022-09-25T11:32:31.073Z,94.40
2022-09-25T11:35:22.847Z,94.40
2022-09-25T11:37:59.008Z,94.40
2022-09-25T11:41:13.901Z,94.40
2022-09-25T11:44:17.410Z,94.40
2022-09-25T11:47:41.519Z,94.50
2022-09-25T11:50:20.446Z,94.40
2022-09-25T11:53:45.783Z,94.50
2022-09-25T11:56:32.824Z,94.50
2022-09-25T12:16:00.740Z,94.50
2022-09-25T12:19:03.332Z,94.50
2022-09-25T12:21:36.536Z,94.60
2022-09-25T12:24:16.650Z,94.60
2022-09-25T12:27:00.486Z,94.60
2022-09-25T12:30:13.143Z,94.60
2022-09-25T12:33:05.611Z,94.60
2022-09-25T12:35:46.993Z,94.60
2022-09-25T12:38:28.648Z,94.60
2022-09-25T12:41:23.146Z,94.60
2022-09-25T12:44:04.499Z,94.60
2022-09-25T12:47:26.112Z,94.70
2022-09-25T13:06:02.703Z,94.70
2022-09-25T13:08:54.277Z,94.80
2022-09-25T13:12:11.231Z,94.80
2022-09-25T13:14:55.647Z,94.80
2022-09-25T13:17:26.638Z,94.80
2022-09-25T13:20:32.765Z,94.80
2022-09-25T13:23:38.703Z,94.90
2022-09-25T13:26:34.078Z,94.80
2022-09-25T14:56:53.501Z,95.80
2022-09-25T14:59:51.369Z,95.60
2022-09-25T15:02:46.489Z,95.40
2022-09-25T15:05:49.715Z,95.40
2022-09-25T15:08:42.547Z,95.70
2022-09-25T15:11:46.147Z,95.60
2022-09-25T15:15:02.015Z,96.00
2022-09-25T15:20:24.609Z,96.40
2022-09-25T16:21:36.847Z,95.40
2022-09-25T16:24:20.508Z,95.90
2022-09-25T16:27:41.582Z,95.60
2022-09-25T16:30:29.713Z,95.60
2022-09-25T16:33:41.964Z,95.70
2022-09-25T16:36:44.834Z,96.10
2022-09-25T16:39:41.792Z,95.50
2022-09-25T16:55:19.364Z,95.50
2022-09-25T16:58:39.268Z,95.40
2022-09-25T17:01:12.275Z,95.20
2022-09-25T17:03:52.401Z,95.60
2022-09-25T17:06:49.873Z,95.20
2022-09-25T17:09:21.818Z,95.10
2022-09-25T17:11:54.817Z,95.00
2022-09-25T17:14:48.571Z,94.90
2022-09-25T17:17:39.512Z,94.60
2022-09-25T17:20:14.408Z,94.30
2022-09-25T17:23:06.468Z,94.70
2022-09-25T17:34:36.064Z,94.60
2022-09-25T17:37:35.769Z,94.40
2022-09-25T17:40:07.035Z,94.50
2022-09-25T17:43:17.031Z,94.80
2022-09-25T17:46:23.244Z,94.70
2022-09-25T17:49:15.460Z,94.70
2022-09-25T17:51:47.936Z,94.60
2022-09-25T17:54:19.953Z,94.70
2022-09-25T17:56:52.325Z,94.60
2022-09-25T18:14:15.863Z,94.50
2022-09-25T18:17:09.344Z,94.50
2022-09-25T18:20:25.479Z,94.40
2022-09-25T18:23:16.487Z,94.60
2022-09-25T18:25:47.604Z,94.40
2022-09-25T18:28:19.824Z,94.40
2022-09-25T18:30:50.792Z,94.40
2022-09-25T18:33:47.438Z,94.50
2022-09-25T18:36:19.147Z,94.70
2022-09-25T18:53:20.351Z,94.40
2022-09-25T18:56:14.212Z,94.50
2022-09-25T18:58:45.228Z,94.20
2022-09-25T19:01:40.038Z,94.40
2022-09-25T19:04:34.173Z,94.40
2022-09-25T19:07:40.225Z,94.20
2022-09-25T19:21:49.266Z,94.10
2022-09-25T19:24:20.273Z,94.00
2022-09-25T19:27:14.823Z,94.40
2022-09-25T19:29:47.723Z,94.20
2022-09-25T19:32:45.086Z,94.10
2022-09-25T19:35:39.973Z,94.10
2022-09-25T19:38:39.502Z,94.30
2022-09-25T19:58:23.082Z,94.00
2022-09-25T20:01:17.374Z,94.00
2022-09-25T20:03:48.406Z,94.20
2022-09-25T20:06:42.381Z,93.90
2022-09-25T20:09:14.095Z,93.80
2022-09-25T20:12:08.046Z,94.00
2022-09-25T20:15:00.547Z,94.40
2022-09-25T20:17:32.585Z,93.90
2022-09-25T20:20:05.487Z,94.20
2022-09-25T20:34:50.608Z,93.80
2022-09-25T20:37:41.861Z,93.70
2022-09-25T20:40:13.437Z,93.80
2022-09-25T20:42:44.838Z,94.10
2022-09-25T20:45:16.737Z,93.80
2022-09-25T20:48:07.628Z,93.80
2022-09-25T20:50:58.495Z,93.70
2022-09-25T20:53:29.442Z,93.80
2022-09-25T20:56:47.791Z,93.60
2022-09-25T20:59:20.160Z,93.80
2022-09-25T21:02:14.766Z,93.80
2022-09-25T21:04:48.130Z,94.10
2022-09-25T21:07:19.962Z,93.80
2022-09-25T21:26:48.799Z,93.60
2022-09-25T21:29:20.309Z,93.50
2022-09-25T21:31:51.335Z,93.50
2022-09-25T21:34:22.363Z,93.60
2022-09-25T21:37:31.398Z,93.60
2022-09-25T21:40:22.613Z,93.60
2022-09-25T21:42:54.635Z,93.50
2022-09-25T21:45:25.459Z,93.60
2022-09-25T21:48:16.608Z,93.50
2022-09-25T21:51:10.837Z,93.50
2022-09-25T21:53:43.177Z,93.50
2022-09-25T22:08:24.443Z,93.90
2022-09-25T22:10:59.981Z,94.00
2022-09-25T22:13:52.535Z,93.80
2022-09-25T22:16:30.819Z,93.60
2022-09-25T22:19:27.810Z,93.60
2022-09-25T22:22:00.223Z,93.60
2022-09-25T22:24:31.310Z,93.50
2022-09-25T22:27:22.393Z,93.60
2022-09-25T22:29:53.540Z,93.50
2022-09-25T22:32:57.755Z,93.40
2022-09-25T22:35:29.906Z,93.50
2022-09-25T22:38:01.100Z,93.40
2022-09-25T23:06:09.541Z,93.40
2022-09-25T23:08:40.546Z,93.30
2022-09-25T23:11:34.533Z,93.40
2022-09-25T23:14:18.464Z,93.30
2022-09-25T23:17:09.600Z,93.40
2022-09-25T23:20:01.196Z,93.40
2022-09-25T23:22:32.444Z,93.20
2022-09-25T23:25:24.830Z,93.20
2022-09-25T23:27:55.813Z,93.30
2022-09-25T23:30:47.900Z,93.30
2022-09-25T23:33:19.401Z,93.20
